Time;durP1;ratioP1;P1;durP2;ratioP2;P2;SDS_P1;SDS_P2;PMS_P1;PMS_P2;Temp;Humidity;BMP_temperature;BMP_pressure;BME280_temperature;BME280_humidity;BME280_pressure;Samples;Min_cycle;Max_cycle;Signal;HPM_P1;HPM_P2
2022/03/12 00:00:51;;;;;;;7.25;4.60;;;;;;;;;;5029535;28;20099;-62
2022/03/12 00:03:17;;;;;;;16.63;6.07;;;;;;;;;;5025689;28;20042;-62
2022/03/12 00:05:54;;;;;;;12.55;6.25;;;;;;;;;;5030127;28;20065;-62
2022/03/12 00:08:28;;;;;;;10.80;4.50;;;;;;;;;;5028666;28;20069;-62
2022/03/12 00:10:54;;;;;;;10.68;5.95;;;;;;;;;;5027049;28;20053;-61
2022/03/12 00:13:20;;;;;;;9.63;6.45;;;;;;;;;;5015824;28;20128;-62
2022/03/12 00:15:58;;;;;;;14.10;6.10;;;;;;;;;;5027180;28;20067;-62
2022/03/12 00:18:25;;;;;;;12.65;7.30;;;;;;;;;;5028491;28;20045;-62
2022/03/12 00:20:51;;;;;;;11.38;7.05;;;;;;;;;;5029339;28;20037;-62
2022/03/12 00:23:18;;;;;;;10.85;7.15;;;;;;;;;;5028586;28;20083;-62
2022/03/12 00:25:48;;;;;;;14.02;6.60;;;;;;;;;;5027431;28;20080;-63
2022/03/12 00:28:15;;;;;;;15.90;6.57;;;;;;;;;;5026312;28;20164;-62
2022/03/12 00:30:45;;;;;;;9.93;6.82;;;;;;;;;;5028360;28;20515;-62
2022/03/12 00:33:12;;;;;;;8.13;5.10;;;;;;;;;;5029060;28;20041;-62
2022/03/12 00:35:38;;;;;;;9.90;6.57;;;;;;;;;;5027493;28;20033;-62
2022/03/12 00:38:04;;;;;;;9.90;6.32;;;;;;;;;;5027314;28;20037;-62
2022/03/12 00:40:30;;;;;;;13.20;6.63;;;;;;;;;;5028489;28;20400;-62
2022/03/12 00:42:56;;;;;;;12.18;6.53;;;;;;;;;;5009819;28;20049;-63
2022/03/12 00:45:23;;;;;;;8.50;5.25;;;;;;;;;;5033905;28;20046;-62
2022/03/12 00:47:50;;;;;;;10.52;6.22;;;;;;;;;;5027463;28;20037;-62
2022/03/12 00:50:16;;;;;;;10.40;5.97;;;;;;;;;;5027432;28;20517;-61
2022/03/12 00:52:43;;;;;;;8.05;6.47;;;;;;;;;;5027705;28;20073;-63
2022/03/12 00:55:09;;;;;;;12.38;6.55;;;;;;;;;;5028223;28;20034;-62
2022/03/12 00:57:35;;;;;;;14.95;6.80;;;;;;;;;;5011203;28;20552;-62
2022/03/12 01:00:01;;;;;;;11.10;6.50;;;;;;;;;;5026943;28;20033;-62
2022/03/12 01:02:27;;;;;;;9.05;5.72;;;;;;;;;;5026218;28;20077;-62
2022/03/12 01:04:53;;;;;;;11.80;6.18;;;;;;;;;;5009964;28;20048;-62
2022/03/12 01:07:19;;;;;;;10.18;6.47;;;;;;;;;;5043377;28;20404;-62
2022/03/12 01:09:45;;;;;;;9.48;5.00;;;;;;;;;;5028521;28;20061;-61
2022/03/12 01:12:12;;;;;;;12.98;5.78;;;;;;;;;;5028555;28;20734;-61
2022/03/12 01:14:38;;;;;;;8.25;5.72;;;;;;;;;;5028014;28;20451;-63
2022/03/12 01:17:05;;;;;;;10.77;6.00;;;;;;;;;;5027513;28;20042;-62
2022/03/12 01:19:34;;;;;;;11.00;6.95;;;;;;;;;;5026799;28;20041;-62
2022/03/12 01:22:01;;;;;;;9.45;6.25;;;;;;;;;;5026880;28;20095;-61
2022/03/12 01:24:28;;;;;;;14.57;6.88;;;;;;;;;;5024766;28;20049;-62
2022/03/12 01:26:54;;;;;;;9.50;5.75;;;;;;;;;;5027364;28;20045;-62
2022/03/12 01:29:20;;;;;;;10.82;5.20;;;;;;;;;;5027155;28;20053;-62
2022/03/12 01:31:46;;;;;;;8.00;6.00;;;;;;;;;;5042874;28;20053;-62
2022/03/12 01:34:12;;;;;;;10.32;5.80;;;;;;;;;;5025382;28;20065;-62
2022/03/12 01:36:38;;;;;;;12.38;6.05;;;;;;;;;;5026033;28;20041;-62
2022/03/12 01:39:05;;;;;;;8.98;5.60;;;;;;;;;;5027530;28;20041;-61
2022/03/12 01:41:33;;;;;;;8.70;6.20;;;;;;;;;;5025858;28;20148;-61
2022/03/12 01:44:00;;;;;;;5.55;4.20;;;;;;;;;;5023572;28;20073;-62
2022/03/12 01:46:32;;;;;;;6.63;3.50;;;;;;;;;;5026057;28;20053;-61
2022/03/12 01:48:59;;;;;;;9.75;6.28;;;;;;;;;;5025659;28;20049;-62
2022/03/12 01:51:27;;;;;;;9.15;5.40;;;;;;;;;;5027588;28;20047;-61
2022/03/12 01:53:53;;;;;;;15.20;6.38;;;;;;;;;;5025664;28;20415;-61
2022/03/12 01:56:19;;;;;;;9.52;6.32;;;;;;;;;;5027187;28;20043;-62
2022/03/12 01:58:47;;;;;;;9.50;5.80;;;;;;;;;;5008918;28;20049;-63
2022/03/12 02:01:14;;;;;;;10.45;6.05;;;;;;;;;;5023818;28;20037;-62
2022/03/12 02:03:40;;;;;;;10.18;6.38;;;;;;;;;;5026958;28;20051;-62
2022/03/12 02:06:06;;;;;;;10.95;5.85;;;;;;;;;;5026730;28;20037;-62
2022/03/12 02:08:32;;;;;;;9.50;5.55;;;;;;;;;;5027218;28;20045;-61
2022/03/12 02:10:59;;;;;;;11.20;6.68;;;;;;;;;;5027810;28;20033;-62
2022/03/12 02:13:26;;;;;;;9.27;5.70;;;;;;;;;;5025988;28;20053;-62
2022/03/12 02:16:04;;;;;;;10.43;6.60;;;;;;;;;;5025076;28;20140;-62
2022/03/12 02:18:30;;;;;;;6.32;3.50;;;;;;;;;;5039011;28;20053;-62
2022/03/12 02:20:58;;;;;;;7.63;4.82;;;;;;;;;;5026368;28;20125;-64
2022/03/12 02:23:24;;;;;;;7.80;6.05;;;;;;;;;;5027192;28;20029;-62
2022/03/12 02:25:50;;;;;;;11.88;6.13;;;;;;;;;;5027248;28;20033;-63
2022/03/12 02:28:17;;;;;;;8.52;6.18;;;;;;;;;;5026129;28;20407;-63
2022/03/12 02:30:55;;;;;;;10.30;6.25;;;;;;;;;;5027433;28;20095;-63
2022/03/12 02:33:28;;;;;;;10.00;5.60;;;;;;;;;;5025838;28;20056;-62
2022/03/12 02:35:54;;;;;;;9.23;6.15;;;;;;;;;;5026636;28;20096;-62
2022/03/12 02:38:21;;;;;;;8.80;5.85;;;;;;;;;;5026060;28;20072;-62
2022/03/12 02:40:48;;;;;;;11.70;5.72;;;;;;;;;;5025938;28;20067;-62
2022/03/12 02:43:14;;;;;;;7.88;4.43;;;;;;;;;;5026903;28;20076;-63
2022/03/12 02:45:41;;;;;;;11.25;5.90;;;;;;;;;;5028151;28;20033;-62
2022/03/12 02:48:10;;;;;;;10.15;4.25;;;;;;;;;;5029975;28;20042;-63
2022/03/12 02:50:37;;;;;;;6.50;4.65;;;;;;;;;;5029854;28;20434;-62
2022/03/12 02:53:03;;;;;;;12.00;6.32;;;;;;;;;;5031348;28;20049;-62
2022/03/12 02:55:34;;;;;;;9.38;6.22;;;;;;;;;;5030766;28;20406;-62
2022/03/12 02:58:00;;;;;;;11.20;6.85;;;;;;;;;;5029535;28;20439;-63
2022/03/12 03:00:27;;;;;;;7.30;5.47;;;;;;;;;;5029787;28;20069;-62
2022/03/12 03:02:53;;;;;;;9.95;4.68;;;;;;;;;;5030840;28;20153;-61
2022/03/12 03:08:02;;;;;;;8.73;5.40;;;;;;;;;;5030368;28;20041;-62
2022/03/12 03:10:33;;;;;;;9.30;5.57;;;;;;;;;;5030456;28;20045;-61
2022/03/12 03:12:59;;;;;;;6.97;4.95;;;;;;;;;;5028989;28;20054;-62
2022/03/12 03:15:25;;;;;;;10.90;6.28;;;;;;;;;;5029201;28;20042;-63
2022/03/12 03:17:52;;;;;;;9.30;5.18;;;;;;;;;;5028862;28;20080;-62
2022/03/12 03:20:19;;;;;;;7.13;5.50;;;;;;;;;;5031138;28;20045;-62
2022/03/12 03:22:45;;;;;;;10.13;6.03;;;;;;;;;;5029431;28;20400;-62
2022/03/12 03:25:11;;;;;;;9.70;5.68;;;;;;;;;;5029254;28;20514;-62
2022/03/12 03:27:37;;;;;;;10.23;5.32;;;;;;;;;;5011670;28;20042;-62
2022/03/12 03:30:03;;;;;;;7.80;5.20;;;;;;;;;;5029450;28;20080;-62
2022/03/12 03:32:29;;;;;;;11.38;6.00;;;;;;;;;;5029029;28;20037;-62
2022/03/12 03:34:55;;;;;;;10.75;5.15;;;;;;;;;;5011902;28;20041;-62
2022/03/12 03:37:21;;;;;;;8.45;5.47;;;;;;;;;;5029480;28;20498;-62
2022/03/12 03:39:48;;;;;;;10.38;6.07;;;;;;;;;;5028308;28;20044;-62
2022/03/12 03:42:21;;;;;;;9.52;5.40;;;;;;;;;;5028828;28;20034;-62
2022/03/12 03:44:48;;;;;;;8.32;5.00;;;;;;;;;;5029319;28;20045;-62
2022/03/12 03:47:14;;;;;;;9.68;6.00;;;;;;;;;;5028287;28;20068;-61
2022/03/12 03:49:40;;;;;;;9.05;5.63;;;;;;;;;;5029850;28;20053;-62
2022/03/12 03:52:07;;;;;;;9.18;5.50;;;;;;;;;;5029884;28;20615;-62
2022/03/12 03:54:34;;;;;;;7.43;5.15;;;;;;;;;;5029898;28;20053;-62
2022/03/12 03:57:00;;;;;;;9.38;6.03;;;;;;;;;;5027566;28;20041;-62
2022/03/12 03:59:28;;;;;;;10.75;5.03;;;;;;;;;;5028812;28;20071;-62
2022/03/12 04:01:54;;;;;;;8.15;5.97;;;;;;;;;;5027938;28;20030;-62
2022/03/12 04:04:20;;;;;;;9.60;5.15;;;;;;;;;;5028029;28;20060;-62
2022/03/12 04:06:47;;;;;;;8.85;5.57;;;;;;;;;;5028778;28;20060;-62
2022/03/12 04:09:13;;;;;;;5.97;3.95;;;;;;;;;;5029031;28;20518;-61
2022/03/12 04:11:39;;;;;;;9.57;5.20;;;;;;;;;;5029767;28;20139;-62
2022/03/12 04:14:06;;;;;;;9.02;5.22;;;;;;;;;;5029103;28;21177;-62
2022/03/12 04:16:33;;;;;;;8.80;5.47;;;;;;;;;;5028627;28;20076;-61
2022/03/12 04:19:01;;;;;;;8.00;5.20;;;;;;;;;;5028020;28;20046;-62
2022/03/12 04:21:27;;;;;;;7.95;5.00;;;;;;;;;;5029143;28;20041;-62
2022/03/12 04:23:53;;;;;;;7.25;4.95;;;;;;;;;;5029651;28;20414;-63
2022/03/12 04:26:19;;;;;;;7.38;5.78;;;;;;;;;;5029363;28;20041;-63
2022/03/12 04:28:45;;;;;;;7.97;5.05;;;;;;;;;;5029113;28;20145;-62
2022/03/12 04:31:11;;;;;;;7.85;5.47;;;;;;;;;;5028596;28;20124;-61
2022/03/12 04:33:39;;;;;;;6.05;5.13;;;;;;;;;;5027249;28;20100;-62
2022/03/12 04:36:05;;;;;;;9.52;4.65;;;;;;;;;;5025647;28;20095;-62
2022/03/12 04:38:31;;;;;;;7.40;5.05;;;;;;;;;;5011170;28;20037;-61
2022/03/12 04:40:57;;;;;;;9.10;5.35;;;;;;;;;;5029428;28;20037;-62
2022/03/12 04:43:25;;;;;;;8.43;5.13;;;;;;;;;;5027377;28;20080;-62
2022/03/12 04:45:51;;;;;;;8.18;5.30;;;;;;;;;;5027084;28;20033;-61
2022/03/12 04:48:19;;;;;;;5.05;3.67;;;;;;;;;;5010068;28;20049;-59
2022/03/12 04:50:45;;;;;;;9.00;5.25;;;;;;;;;;5029252;28;20120;-63
2022/03/12 04:53:11;;;;;;;7.85;4.03;;;;;;;;;;5025957;28;20052;-62
2022/03/12 04:55:39;;;;;;;7.47;4.68;;;;;;;;;;5035837;28;20499;-61
2022/03/12 04:58:07;;;;;;;7.85;4.68;;;;;;;;;;5026685;28;20038;-63
2022/03/12 05:00:38;;;;;;;6.20;4.70;;;;;;;;;;5026786;28;20053;-62
2022/03/12 05:03:08;;;;;;;9.20;5.35;;;;;;;;;;5024919;28;20566;-61
2022/03/12 05:05:39;;;;;;;6.13;4.45;;;;;;;;;;5026810;28;20049;-62
2022/03/12 05:08:05;;;;;;;8.75;5.22;;;;;;;;;;5026585;28;20484;-63
2022/03/12 05:10:31;;;;;;;7.38;5.10;;;;;;;;;;5028136;28;20044;-61
2022/03/12 05:13:00;;;;;;;8.48;4.32;;;;;;;;;;5027816;28;20080;-61
2022/03/12 05:15:31;;;;;;;7.32;4.90;;;;;;;;;;5026248;28;20052;-62
2022/03/12 05:17:58;;;;;;;6.82;4.50;;;;;;;;;;5027710;28;20095;-63
2022/03/12 05:20:25;;;;;;;6.97;4.90;;;;;;;;;;5025809;28;20136;-63
2022/03/12 05:22:52;;;;;;;9.48;5.20;;;;;;;;;;5025868;28;20041;-62
2022/03/12 05:25:19;;;;;;;7.07;4.88;;;;;;;;;;5027934;28;20048;-62
2022/03/12 05:27:51;;;;;;;8.32;5.13;;;;;;;;;;5025417;28;20038;-63
2022/03/12 05:30:17;;;;;;;7.38;5.38;;;;;;;;;;5028261;28;20037;-64
2022/03/12 05:32:43;;;;;;;6.63;4.55;;;;;;;;;;5026729;28;20079;-63
2022/03/12 05:35:09;;;;;;;7.57;4.85;;;;;;;;;;5026856;28;20045;-62
2022/03/12 05:37:40;;;;;;;7.53;4.70;;;;;;;;;;5026407;28;20523;-63
2022/03/12 05:40:07;;;;;;;10.45;5.70;;;;;;;;;;5026934;28;20069;-61
2022/03/12 05:42:34;;;;;;;9.00;5.20;;;;;;;;;;5027627;28;20065;-62
2022/03/12 05:45:01;;;;;;;6.97;5.00;;;;;;;;;;5028009;28;20049;-63
2022/03/12 05:47:27;;;;;;;12.00;5.68;;;;;;;;;;5027686;28;20049;-63
2022/03/12 05:49:53;;;;;;;7.88;3.58;;;;;;;;;;5026948;28;20081;-61
2022/03/12 05:52:20;;;;;;;7.57;4.75;;;;;;;;;;5027951;28;20045;-62
2022/03/12 05:54:48;;;;;;;8.25;5.10;;;;;;;;;;5027424;28;20037;-62
2022/03/12 05:57:14;;;;;;;10.57;5.10;;;;;;;;;;5026347;28;20041;-61
2022/03/12 05:59:40;;;;;;;7.80;4.63;;;;;;;;;;5042962;28;20108;-61
2022/03/12 06:02:06;;;;;;;9.35;5.32;;;;;;;;;;5027905;28;20037;-62
2022/03/12 06:04:33;;;;;;;7.03;4.65;;;;;;;;;;5027096;28;20045;-62
2022/03/12 06:07:00;;;;;;;9.38;4.95;;;;;;;;;;5024883;28;20077;-62
2022/03/12 06:09:26;;;;;;;10.27;4.78;;;;;;;;;;5027470;28;20426;-61
2022/03/12 06:11:53;;;;;;;8.23;4.72;;;;;;;;;;5028111;28;20037;-61
2022/03/12 06:14:21;;;;;;;9.73;5.47;;;;;;;;;;5025434;28;20060;-62
2022/03/12 06:16:48;;;;;;;8.48;5.03;;;;;;;;;;5025723;28;20060;-61
2022/03/12 06:19:19;;;;;;;7.90;4.50;;;;;;;;;;5027097;28;20037;-60
2022/03/12 06:21:45;;;;;;;10.00;5.43;;;;;;;;;;5032020;28;20042;-62
2022/03/12 06:24:13;;;;;;;11.68;5.47;;;;;;;;;;5026050;28;20045;-62
2022/03/12 06:26:39;;;;;;;8.68;4.90;;;;;;;;;;5025827;28;20048;-61
2022/03/12 06:29:11;;;;;;;10.63;4.78;;;;;;;;;;5027461;28;20124;-62
2022/03/12 06:31:38;;;;;;;8.55;4.30;;;;;;;;;;5023252;28;20124;-63
2022/03/12 06:34:05;;;;;;;6.55;3.70;;;;;;;;;;5025279;28;20446;-61
2022/03/12 06:36:31;;;;;;;21.00;4.78;;;;;;;;;;5025380;28;20098;-63
2022/03/12 06:38:57;;;;;;;8.05;4.93;;;;;;;;;;5025400;28;20069;-62
2022/03/12 06:41:24;;;;;;;7.25;4.97;;;;;;;;;;5025488;28;20540;-62
2022/03/12 06:43:52;;;;;;;8.77;5.20;;;;;;;;;;5008659;28;20042;-61
2022/03/12 06:46:18;;;;;;;11.80;5.15;;;;;;;;;;5026125;28;20045;-62
2022/03/12 06:48:45;;;;;;;8.07;3.95;;;;;;;;;;5026590;28;20379;-62
2022/03/12 06:51:11;;;;;;;8.27;5.00;;;;;;;;;;5025231;28;20111;-61
2022/03/12 06:53:38;;;;;;;8.13;4.72;;;;;;;;;;5024109;28;20049;-61
2022/03/12 06:56:06;;;;;;;11.65;5.15;;;;;;;;;;5008590;28;20171;-62
2022/03/12 06:58:32;;;;;;;6.55;4.63;;;;;;;;;;5023273;28;20080;-61
2022/03/12 07:00:59;;;;;;;8.95;5.28;;;;;;;;;;5024980;28;20048;-61
2022/03/12 07:03:25;;;;;;;12.40;5.13;;;;;;;;;;5025120;28;20049;-61
2022/03/12 07:05:52;;;;;;;10.10;6.00;;;;;;;;;;5024627;28;20500;-62
2022/03/12 07:08:19;;;;;;;9.52;5.57;;;;;;;;;;5025274;28;20060;-62
2022/03/12 07:10:46;;;;;;;8.45;5.40;;;;;;;;;;5024831;28;20049;-61
2022/03/12 07:13:12;;;;;;;9.35;5.10;;;;;;;;;;5026079;28;20050;-63
2022/03/12 07:15:38;;;;;;;10.23;5.10;;;;;;;;;;5025918;28;20531;-61
2022/03/12 07:18:04;;;;;;;8.32;5.25;;;;;;;;;;5025821;28;20057;-63
2022/03/12 07:20:31;;;;;;;8.55;5.55;;;;;;;;;;5026269;28;20038;-61
2022/03/12 07:22:57;;;;;;;8.65;5.40;;;;;;;;;;5024675;28;20041;-61
2022/03/12 07:25:25;;;;;;;9.18;5.22;;;;;;;;;;5009115;28;20037;-63
2022/03/12 07:27:52;;;;;;;9.77;5.20;;;;;;;;;;5031348;28;20045;-63
2022/03/12 07:30:19;;;;;;;6.00;4.43;;;;;;;;;;5027098;28;20453;-61
2022/03/12 07:32:45;;;;;;;7.03;5.20;;;;;;;;;;5010828;28;20041;-63
2022/03/12 07:35:13;;;;;;;6.65;4.70;;;;;;;;;;5028454;28;20128;-63
2022/03/12 07:37:43;;;;;;;8.45;4.60;;;;;;;;;;5027715;28;20033;-62
2022/03/12 07:40:09;;;;;;;7.90;4.82;;;;;;;;;;5027308;28;20042;-63
2022/03/12 07:42:36;;;;;;;7.45;4.07;;;;;;;;;;5028419;28;20053;-61
2022/03/12 07:45:03;;;;;;;7.25;4.53;;;;;;;;;;5029871;28;20045;-62
2022/03/12 07:47:29;;;;;;;8.43;5.30;;;;;;;;;;4995282;28;20643;-62
2022/03/12 07:49:56;;;;;;;10.23;5.30;;;;;;;;;;5027874;28;20153;-62
2022/03/12 07:52:22;;;;;;;8.30;4.95;;;;;;;;;;5028047;28;20140;-61
2022/03/12 07:54:49;;;;;;;9.65;5.97;;;;;;;;;;5028235;28;20045;-61
2022/03/12 07:57:15;;;;;;;10.07;5.63;;;;;;;;;;5027680;28;20538;-59
2022/03/12 07:59:42;;;;;;;7.28;4.75;;;;;;;;;;5029293;28;20045;-60
2022/03/12 08:02:08;;;;;;;8.25;4.65;;;;;;;;;;5029127;28;20437;-60
2022/03/12 08:04:35;;;;;;;8.23;4.70;;;;;;;;;;5030030;28;20159;-61
2022/03/12 08:07:02;;;;;;;9.43;4.90;;;;;;;;;;5028161;28;20184;-61
2022/03/12 08:09:31;;;;;;;7.80;4.80;;;;;;;;;;5030214;28;20136;-61
2022/03/12 08:11:58;;;;;;;8.13;4.75;;;;;;;;;;5028943;28;20136;-61
2022/03/12 08:14:24;;;;;;;7.38;5.03;;;;;;;;;;5028841;28;20038;-61
2022/03/12 08:16:52;;;;;;;7.68;4.63;;;;;;;;;;5026733;28;20053;-61
2022/03/12 08:19:18;;;;;;;5.50;3.83;;;;;;;;;;5028209;28;20491;-62
2022/03/12 08:21:45;;;;;;;10.27;5.10;;;;;;;;;;5026501;28;20038;-63
2022/03/12 08:24:15;;;;;;;5.57;4.53;;;;;;;;;;5009065;28;20045;-65
2022/03/12 08:26:43;;;;;;;6.60;4.95;;;;;;;;;;5023880;28;20068;-63
2022/03/12 08:29:10;;;;;;;9.07;4.57;;;;;;;;;;5027664;28;20121;-63
2022/03/12 08:31:37;;;;;;;11.25;4.82;;;;;;;;;;5025473;28;20037;-62
2022/03/12 08:34:03;;;;;;;6.97;5.00;;;;;;;;;;5025736;28;20091;-62
2022/03/12 08:36:30;;;;;;;6.65;4.75;;;;;;;;;;5033247;28;20046;-62
2022/03/12 08:38:56;;;;;;;7.95;5.20;;;;;;;;;;5026104;28;20038;-62
2022/03/12 08:41:22;;;;;;;6.95;5.57;;;;;;;;;;5026216;28;20446;-62
2022/03/12 08:43:49;;;;;;;5.75;4.80;;;;;;;;;;5025873;28;20316;-62
2022/03/12 08:46:15;;;;;;;6.35;4.18;;;;;;;;;;5027289;28;20046;-62
2022/03/12 08:48:41;;;;;;;6.30;4.88;;;;;;;;;;5030516;28;20560;-61
2022/03/12 08:51:08;;;;;;;8.02;4.85;;;;;;;;;;5030784;28;20091;-62
2022/03/12 08:53:34;;;;;;;7.70;4.80;;;;;;;;;;5030200;28;20120;-62
2022/03/12 08:56:01;;;;;;;8.18;4.95;;;;;;;;;;5030844;28;20519;-62
2022/03/12 08:58:29;;;;;;;6.38;5.25;;;;;;;;;;5029774;28;20480;-62
2022/03/12 09:00:56;;;;;;;9.35;5.22;;;;;;;;;;5031609;28;20495;-62
2022/03/12 09:03:22;;;;;;;10.05;5.75;;;;;;;;;;5029888;28;20057;-61
2022/03/12 09:05:49;;;;;;;7.50;4.78;;;;;;;;;;5031068;28;20037;-62
2022/03/12 09:08:15;;;;;;;10.27;5.47;;;;;;;;;;5029629;28;20048;-61
2022/03/12 09:10:42;;;;;;;7.47;5.65;;;;;;;;;;5031559;28;20045;-60
2022/03/12 09:13:13;;;;;;;11.73;5.72;;;;;;;;;;5030147;28;20179;-61
2022/03/12 09:15:40;;;;;;;8.82;5.80;;;;;;;;;;5028755;28;20064;-62
2022/03/12 09:18:06;;;;;;;8.20;4.97;;;;;;;;;;5028795;28;20511;-62
2022/03/12 09:20:41;;;;;;;9.93;5.57;;;;;;;;;;5030400;28;20049;-62
2022/03/12 09:23:07;;;;;;;7.25;5.55;;;;;;;;;;5028738;28;20084;-63
2022/03/12 09:25:34;;;;;;;7.78;5.90;;;;;;;;;;5029928;28;20045;-62
2022/03/12 09:28:00;;;;;;;6.75;5.75;;;;;;;;;;5030189;28;20091;-62
2022/03/12 09:30:26;;;;;;;8.20;5.72;;;;;;;;;;5030050;28;20103;-62
2022/03/12 09:32:53;;;;;;;7.18;5.60;;;;;;;;;;5028587;28;20072;-61
2022/03/12 09:35:20;;;;;;;9.70;5.70;;;;;;;;;;5028600;28;20049;-62
2022/03/12 09:37:47;;;;;;;7.47;5.60;;;;;;;;;;5028348;28;20532;-62
2022/03/12 09:40:17;;;;;;;8.23;6.10;;;;;;;;;;5028889;28;20107;-62
2022/03/12 09:42:43;;;;;;;7.72;6.20;;;;;;;;;;5028674;28;20064;-62
2022/03/12 09:45:10;;;;;;;7.10;5.70;;;;;;;;;;5030228;28;20048;-62
2022/03/12 09:47:36;;;;;;;9.15;5.95;;;;;;;;;;5028525;28;20045;-62
2022/03/12 09:50:03;;;;;;;7.35;6.00;;;;;;;;;;5028804;28;20050;-63
2022/03/12 09:52:29;;;;;;;7.90;6.13;;;;;;;;;;5029789;28;20120;-63
2022/03/12 09:54:55;;;;;;;6.53;5.80;;;;;;;;;;5028716;28;20137;-63
2022/03/12 09:57:21;;;;;;;9.40;6.20;;;;;;;;;;5028588;28;20290;-62
2022/03/12 09:59:48;;;;;;;8.30;6.15;;;;;;;;;;5027837;28;20038;-63
2022/03/12 10:02:14;;;;;;;8.13;6.05;;;;;;;;;;5028414;28;20041;-62
2022/03/12 10:04:40;;;;;;;12.40;6.68;;;;;;;;;;5028043;28;20041;-62
2022/03/12 10:07:08;;;;;;;8.73;6.10;;;;;;;;;;5028338;28;20140;-62
2022/03/12 10:09:34;;;;;;;8.20;6.15;;;;;;;;;;5028014;28;20041;-63
2022/03/12 10:12:01;;;;;;;7.25;6.45;;;;;;;;;;5029394;28;20063;-62
2022/03/12 10:14:28;;;;;;;6.25;5.47;;;;;;;;;;5027644;28;20065;-63
2022/03/12 10:16:55;;;;;;;7.78;5.65;;;;;;;;;;5028322;28;20408;-62
2022/03/12 10:19:22;;;;;;;7.15;5.93;;;;;;;;;;5028280;28;20083;-62
2022/03/12 10:21:51;;;;;;;8.18;5.70;;;;;;;;;;5027982;28;20049;-62
2022/03/12 10:24:18;;;;;;;8.48;5.07;;;;;;;;;;5029051;28;20386;-61
2022/03/12 10:26:45;;;;;;;7.63;6.43;;;;;;;;;;5028897;28;20407;-61
2022/03/12 10:29:11;;;;;;;6.97;6.25;;;;;;;;;;5028248;28;20053;-61
2022/03/12 10:31:41;;;;;;;7.85;6.28;;;;;;;;;;5028237;28;20053;-63
2022/03/12 10:34:33;;;;;;;8.75;6.43;;;;;;;;;;5027495;28;20045;-62
2022/03/12 10:36:59;;;;;;;8.57;5.90;;;;;;;;;;5009431;28;20061;-63
2022/03/12 10:39:32;;;;;;;7.20;6.50;;;;;;;;;;5027703;28;20084;-62
2022/03/12 10:42:04;;;;;;;8.95;6.35;;;;;;;;;;5029090;28;20392;-64
2022/03/12 10:44:37;;;;;;;7.05;6.35;;;;;;;;;;5027441;28;20053;-62
2022/03/12 10:47:03;;;;;;;7.78;6.22;;;;;;;;;;5029302;28;20129;-63
2022/03/12 10:49:30;;;;;;;8.95;6.10;;;;;;;;;;5027485;28;20073;-65
2022/03/12 10:51:58;;;;;;;7.68;6.38;;;;;;;;;;5027842;28;20371;-62
2022/03/12 10:54:24;;;;;;;8.25;6.35;;;;;;;;;;5027303;28;20041;-63
2022/03/12 10:56:58;;;;;;;9.10;6.28;;;;;;;;;;5028083;28;20067;-62
2022/03/12 10:59:25;;;;;;;9.43;6.10;;;;;;;;;;5029060;28;20072;-63
2022/03/12 11:01:52;;;;;;;6.80;6.07;;;;;;;;;;5027815;28;20112;-63
2022/03/12 11:04:19;;;;;;;8.02;5.88;;;;;;;;;;5027903;28;20112;-62
2022/03/12 11:06:46;;;;;;;8.00;6.57;;;;;;;;;;5029770;28;20085;-61
2022/03/12 11:09:18;;;;;;;9.10;6.25;;;;;;;;;;5031947;28;20087;-61
2022/03/12 11:11:45;;;;;;;8.60;6.60;;;;;;;;;;5032126;28;20049;-62
2022/03/12 11:14:20;;;;;;;8.00;6.47;;;;;;;;;;5034162;28;20041;-61
2022/03/12 11:16:52;;;;;;;8.68;6.78;;;;;;;;;;5032865;28;20090;-62
2022/03/12 11:19:37;;;;;;;9.05;6.50;;;;;;;;;;5031327;28;20391;-62
2022/03/12 11:22:08;;;;;;;8.10;6.53;;;;;;;;;;5031908;28;20435;-61
2022/03/12 11:24:45;;;;;;;7.25;6.28;;;;;;;;;;5033435;28;20046;-60
2022/03/12 11:27:12;;;;;;;7.45;6.60;;;;;;;;;;5032823;28;20132;-62
2022/03/12 11:29:39;;;;;;;7.53;6.10;;;;;;;;;;5031957;28;20458;-62
2022/03/12 11:32:09;;;;;;;7.22;6.53;;;;;;;;;;5032584;28;20562;-62
2022/03/12 11:34:42;;;;;;;8.40;6.25;;;;;;;;;;5031018;28;20052;-61
2022/03/12 11:37:13;;;;;;;7.15;5.90;;;;;;;;;;5032638;28;20056;-62
2022/03/12 11:39:46;;;;;;;10.10;6.60;;;;;;;;;;5031456;28;20060;-62
2022/03/12 11:42:20;;;;;;;6.85;6.10;;;;;;;;;;5032865;28;20064;-61
2022/03/12 11:44:46;;;;;;;7.22;6.00;;;;;;;;;;5031579;28;20045;-62
2022/03/12 11:47:12;;;;;;;8.02;6.50;;;;;;;;;;5031125;28;20049;-61
2022/03/12 11:49:39;;;;;;;6.70;5.63;;;;;;;;;;5031416;28;20449;-61
2022/03/12 11:52:05;;;;;;;8.80;6.10;;;;;;;;;;5031086;28;20333;-61
2022/03/12 11:54:31;;;;;;;7.28;6.03;;;;;;;;;;5032254;28;20045;-61
2022/03/12 11:56:59;;;;;;;9.40;5.80;;;;;;;;;;5030796;28;20419;-61
2022/03/12 11:59:26;;;;;;;6.68;5.47;;;;;;;;;;5032509;28;20079;-62
2022/03/12 12:02:05;;;;;;;8.48;5.75;;;;;;;;;;5030514;28;20048;-61
2022/03/12 12:04:32;;;;;;;7.30;5.88;;;;;;;;;;5030850;28;20052;-61
2022/03/12 12:06:59;;;;;;;7.75;6.43;;;;;;;;;;5014563;28;20482;-61
2022/03/12 12:09:26;;;;;;;7.28;6.30;;;;;;;;;;5030640;28;20088;-60
2022/03/12 12:11:53;;;;;;;10.48;6.60;;;;;;;;;;5030725;28;20048;-61
2022/03/12 12:14:19;;;;;;;7.40;6.13;;;;;;;;;;5032177;28;20047;-62
2022/03/12 12:16:46;;;;;;;8.75;6.53;;;;;;;;;;5030189;28;20061;-61
2022/03/12 12:19:13;;;;;;;8.23;6.40;;;;;;;;;;5030101;28;20056;-61
2022/03/12 12:21:39;;;;;;;6.78;5.80;;;;;;;;;;5030324;28;20073;-61
2022/03/12 12:24:27;;;;;;;7.60;5.90;;;;;;;;;;5030673;28;20049;-61
2022/03/12 12:27:01;;;;;;;6.82;5.90;;;;;;;;;;5030515;28;20049;-61
2022/03/12 12:29:40;;;;;;;7.47;6.03;;;;;;;;;;5030684;28;20064;-61
2022/03/12 12:32:06;;;;;;;7.18;6.22;;;;;;;;;;5031642;28;20128;-60
2022/03/12 12:34:34;;;;;;;6.35;5.70;;;;;;;;;;5032041;28;20399;-61
2022/03/12 12:37:01;;;;;;;7.40;6.22;;;;;;;;;;5014308;28;20045;-62
2022/03/12 12:39:27;;;;;;;11.07;6.53;;;;;;;;;;5030210;28;20045;-61
2022/03/12 12:41:55;;;;;;;8.40;6.85;;;;;;;;;;5031204;28;20044;-63
2022/03/12 12:44:39;;;;;;;7.43;6.65;;;;;;;;;;5029497;28;20046;-62
2022/03/12 12:47:06;;;;;;;8.32;7.05;;;;;;;;;;5029554;28;20041;-63
2022/03/12 12:49:36;;;;;;;8.55;6.65;;;;;;;;;;5028646;28;20109;-62
2022/03/12 12:52:03;;;;;;;8.43;6.55;;;;;;;;;;5030653;28;20171;-62
2022/03/12 12:54:48;;;;;;;8.30;6.80;;;;;;;;;;5011590;28;20060;-62
2022/03/12 12:57:14;;;;;;;8.38;6.25;;;;;;;;;;5027537;28;20052;-62
2022/03/12 12:59:46;;;;;;;7.70;5.88;;;;;;;;;;5028105;28;20479;-62
2022/03/12 13:02:12;;;;;;;9.05;5.65;;;;;;;;;;5025069;28;20099;-63
2022/03/12 13:04:48;;;;;;;8.38;6.07;;;;;;;;;;5024648;28;20041;-62
2022/03/12 13:07:22;;;;;;;6.60;5.85;;;;;;;;;;5027055;28;20499;-63
2022/03/12 13:09:48;;;;;;;6.85;5.43;;;;;;;;;;5029123;28;20296;-62
2022/03/12 13:12:15;;;;;;;9.77;5.97;;;;;;;;;;5028548;28;20037;-64
2022/03/12 13:15:02;;;;;;;7.70;5.80;;;;;;;;;;5026074;28;20473;-62
2022/03/12 13:17:30;;;;;;;7.25;5.85;;;;;;;;;;5026323;28;20399;-62
2022/03/12 13:19:57;;;;;;;7.10;6.28;;;;;;;;;;5027017;28;20470;-62
2022/03/12 13:22:24;;;;;;;7.90;6.10;;;;;;;;;;5022567;28;20077;-64
2022/03/12 13:25:00;;;;;;;7.88;5.55;;;;;;;;;;5032651;28;20048;-63
2022/03/12 13:27:31;;;;;;;8.18;5.63;;;;;;;;;;5027706;28;20057;-62
2022/03/12 13:30:10;;;;;;;7.25;5.32;;;;;;;;;;5028006;28;20053;-63
2022/03/12 13:32:41;;;;;;;10.00;5.55;;;;;;;;;;5027284;28;20045;-62
2022/03/12 13:35:08;;;;;;;9.05;5.60;;;;;;;;;;5027654;28;20033;-63
2022/03/12 13:37:35;;;;;;;9.35;5.05;;;;;;;;;;5026038;28;20183;-63
2022/03/12 13:40:02;;;;;;;8.00;4.32;;;;;;;;;;5025169;28;20423;-64
2022/03/12 13:42:29;;;;;;;8.13;4.47;;;;;;;;;;5028046;28;20029;-64
2022/03/12 13:44:55;;;;;;;7.15;5.15;;;;;;;;;;5026483;28;20042;-63
2022/03/12 13:47:25;;;;;;;7.25;5.07;;;;;;;;;;5009430;28;20041;-62
2022/03/12 13:49:52;;;;;;;9.55;5.57;;;;;;;;;;5028731;28;20091;-61
2022/03/12 13:52:21;;;;;;;8.57;5.18;;;;;;;;;;5029072;28;20145;-61
2022/03/12 13:54:47;;;;;;;7.82;5.10;;;;;;;;;;5028600;28;20041;-62
2022/03/12 13:57:15;;;;;;;10.02;5.40;;;;;;;;;;5028042;28;20041;-62
2022/03/12 13:59:41;;;;;;;7.68;5.75;;;;;;;;;;5027785;28;20048;-63
2022/03/12 14:02:11;;;;;;;8.80;6.05;;;;;;;;;;5027207;28;20471;-63
2022/03/12 14:04:37;;;;;;;7.90;5.97;;;;;;;;;;5026965;28;20430;-63
2022/03/12 14:07:13;;;;;;;8.43;5.13;;;;;;;;;;5027802;28;20080;-61
2022/03/12 14:09:39;;;;;;;9.77;5.90;;;;;;;;;;5027867;28;20037;-62
2022/03/12 14:12:05;;;;;;;8.52;5.35;;;;;;;;;;5010319;28;20045;-62
2022/03/12 14:14:31;;;;;;;8.68;6.28;;;;;;;;;;5027952;28;20045;-62
2022/03/12 14:16:58;;;;;;;6.82;5.90;;;;;;;;;;5029298;28;20057;-62
2022/03/12 14:19:26;;;;;;;7.13;6.35;;;;;;;;;;5029065;28;20072;-63
2022/03/12 14:21:59;;;;;;;8.93;7.05;;;;;;;;;;5012507;28;20105;-63
2022/03/12 14:24:25;;;;;;;;;;;;;;;;;;5030283;28;20092;-64
2022/03/12 14:26:54;;;;;;;7.93;7.13;;;;;;;;;;5028597;28;19971;-63
2022/03/12 14:29:23;;;;;;;8.45;6.93;;;;;;;;;;5029654;28;20044;-63
2022/03/12 14:31:49;;;;;;;9.27;7.00;;;;;;;;;;5028575;28;20117;-62
2022/03/12 14:34:16;;;;;;;8.23;6.95;;;;;;;;;;5028380;28;20037;-63
2022/03/12 14:36:43;;;;;;;9.50;7.38;;;;;;;;;;5028446;28;20038;-64
2022/03/12 14:39:16;;;;;;;8.77;7.38;;;;;;;;;;5028481;28;20530;-61
2022/03/12 14:41:43;;;;;;;8.00;6.68;;;;;;;;;;5030361;28;20047;-61
2022/03/12 14:44:11;;;;;;;8.15;6.85;;;;;;;;;;5016977;28;20107;-61
2022/03/12 14:46:38;;;;;;;8.50;6.22;;;;;;;;;;5016722;28;20084;-62